createdAt,value
2019-02-23T00:01:25.339Z,100.00
2019-02-23T00:03:58.848Z,100.00
2019-02-23T00:06:31.604Z,100.00
2019-02-23T00:09:05.794Z,100.00
2019-02-23T00:11:40.988Z,100.00
2019-02-23T00:14:14.373Z,100.00
2019-02-23T00:16:47.169Z,100.00
2019-02-23T00:19:24.956Z,100.00
2019-02-23T00:21:55.616Z,100.00
2019-02-23T00:24:28.711Z,100.00
2019-02-23T00:27:01.756Z,100.00
2019-02-23T00:29:34.819Z,100.00
2019-02-23T00:32:07.837Z,100.00
2019-02-23T00:34:41.463Z,100.00
2019-02-23T00:37:15.262Z,100.00
2019-02-23T00:39:50.202Z,100.00
2019-02-23T00:42:24.073Z,100.00
2019-02-23T00:44:57.939Z,100.00
2019-02-23T00:47:31.294Z,100.00
2019-02-23T00:50:04.582Z,100.00
2019-02-23T00:52:37.679Z,100.00
2019-02-23T00:55:09.915Z,100.00
2019-02-23T00:57:42.852Z,100.00
2019-02-23T01:00:16.922Z,100.00
2019-02-23T01:02:50.364Z,100.00
2019-02-23T01:05:23.762Z,100.00
2019-02-23T01:07:57.065Z,100.00
2019-02-23T01:10:30.515Z,100.00
2019-02-23T01:13:03.969Z,100.00
2019-02-23T01:15:37.196Z,100.00
2019-02-23T01:18:09.461Z,100.00
2019-02-23T01:20:42.391Z,100.00
2019-02-23T01:23:15.360Z,100.00
2019-02-23T01:25:48.666Z,100.00
2019-02-23T01:28:22.590Z,100.00
2019-02-23T01:30:55.192Z,100.00
2019-02-23T01:33:27.843Z,100.00
2019-02-23T01:36:01.133Z,100.00
2019-02-23T01:38:34.293Z,100.00
2019-02-23T01:41:09.360Z,100.00
2019-02-23T01:43:42.777Z,100.00
2019-02-23T01:46:15.760Z,100.00
2019-02-23T01:48:49.653Z,100.00
2019-02-23T01:51:23.528Z,100.00
2019-02-23T01:53:56.998Z,100.00
2019-02-23T01:56:29.956Z,100.00
2019-02-23T01:59:03.044Z,100.00
2019-02-23T02:01:35.711Z,100.00
2019-02-23T02:04:08.676Z,100.00
2019-02-23T02:06:42.372Z,100.00
2019-02-23T02:09:15.824Z,100.00
2019-02-23T02:11:49.021Z,100.00
2019-02-23T02:14:22.397Z,100.00
2019-02-23T02:16:55.417Z,100.00
2019-02-23T02:19:27.971Z,100.00
2019-02-23T02:22:00.956Z,100.00
2019-02-23T02:24:33.511Z,100.00
2019-02-23T02:27:07.041Z,100.00
2019-02-23T02:29:40.431Z,100.00
2019-02-23T02:32:13.774Z,100.00
2019-02-23T02:34:46.842Z,100.00
2019-02-23T02:37:20.210Z,100.00
2019-02-23T02:39:53.697Z,100.00
2019-02-23T02:42:26.746Z,100.00
2019-02-23T02:45:00.054Z,100.00
2019-02-23T02:47:33.214Z,100.00
2019-02-23T02:50:07.055Z,100.00
2019-02-23T02:52:39.765Z,100.00
2019-02-23T02:55:12.872Z,100.00
2019-02-23T02:57:46.056Z,100.00
2019-02-23T03:00:19.866Z,100.00
2019-02-23T03:02:53.809Z,100.00
2019-02-23T03:05:27.056Z,100.00
2019-02-23T03:08:00.453Z,100.00
2019-02-23T03:10:33.485Z,100.00
2019-02-23T03:13:06.821Z,100.00
2019-02-23T03:15:39.570Z,100.00
2019-02-23T03:18:13.243Z,100.00
2019-02-23T03:20:47.731Z,100.00
2019-02-23T03:23:21.135Z,100.00
2019-02-23T03:25:54.456Z,100.00
2019-02-23T03:28:28.251Z,100.00
2019-02-23T03:31:01.046Z,100.00
2019-02-23T03:33:34.502Z,100.00
2019-02-23T03:36:07.835Z,100.00
2019-02-23T03:38:40.428Z,100.00
2019-02-23T03:41:13.464Z,100.00
2019-02-23T03:43:46.240Z,100.00
2019-02-23T03:46:18.921Z,100.00
2019-02-23T03:48:52.253Z,100.00
2019-02-23T03:51:25.634Z,100.00
2019-02-23T03:53:59.082Z,100.00
2019-02-23T03:56:33.105Z,100.00
2019-02-23T03:59:06.161Z,100.00
2019-02-23T04:01:39.125Z,100.00
2019-02-23T04:04:12.537Z,100.00
2019-02-23T04:06:44.861Z,100.00
2019-02-23T04:09:18.127Z,100.00
2019-02-23T04:11:51.092Z,100.00
2019-02-23T04:14:24.913Z,100.00
2019-02-23T04:16:57.891Z,100.00
2019-02-23T04:19:31.053Z,100.00
2019-02-23T04:22:04.297Z,100.00
2019-02-23T04:24:37.461Z,100.00
2019-02-23T04:27:10.514Z,100.00
2019-02-23T04:29:46.821Z,100.00
2019-02-23T04:32:18.796Z,100.00
2019-02-23T04:34:52.074Z,100.00
2019-02-23T04:37:24.700Z,100.00
2019-02-23T04:39:57.670Z,100.00
2019-02-23T04:42:30.344Z,100.00
2019-02-23T04:45:02.905Z,100.00
2019-02-23T04:47:35.819Z,100.00
2019-02-23T04:50:09.470Z,100.00
2019-02-23T04:52:42.690Z,100.00
2019-02-23T04:55:16.006Z,100.00
2019-02-23T04:57:49.306Z,100.00
2019-02-23T05:00:22.671Z,100.00
2019-02-23T05:02:55.849Z,100.00
2019-02-23T05:05:29.653Z,100.00
2019-02-23T05:08:03.037Z,100.00
2019-02-23T05:10:36.081Z,100.00
2019-02-23T05:13:09.149Z,100.00
2019-02-23T05:15:42.938Z,100.00
2019-02-23T05:18:16.686Z,100.00
2019-02-23T05:20:49.639Z,100.00
2019-02-23T05:23:23.187Z,100.00
2019-02-23T05:25:56.634Z,100.00
2019-02-23T05:28:29.656Z,100.00
2019-02-23T05:31:03.365Z,100.00
2019-02-23T05:33:36.369Z,100.00
2019-02-23T05:36:10.249Z,100.00
2019-02-23T05:38:43.516Z,100.00
2019-02-23T05:41:16.568Z,100.00
2019-02-23T05:43:49.591Z,100.00
2019-02-23T05:46:22.894Z,100.00
2019-02-23T05:48:56.283Z,100.00
2019-02-23T05:51:38.283Z,100.00
2019-02-23T05:54:03.570Z,100.00
2019-02-23T05:56:36.212Z,100.00
2019-02-23T05:59:08.928Z,100.00
2019-02-23T06:01:42.337Z,100.00
2019-02-23T06:04:16.094Z,100.00
2019-02-23T06:06:49.784Z,100.00
2019-02-23T06:09:23.097Z,100.00
2019-02-23T06:11:56.651Z,100.00
2019-02-23T06:14:31.077Z,100.00
2019-02-23T06:17:04.367Z,100.00
2019-02-23T06:19:37.849Z,100.00
2019-02-23T06:22:10.902Z,100.00
2019-02-23T06:24:43.959Z,100.00
2019-02-23T06:27:17.024Z,100.00
2019-02-23T06:29:50.455Z,100.00
2019-02-23T06:32:23.411Z,100.00
2019-02-23T06:34:56.415Z,100.00
2019-02-23T06:37:29.508Z,100.00
2019-02-23T06:40:03.271Z,100.00
2019-02-23T06:42:36.940Z,100.00
2019-02-23T06:45:09.619Z,100.00
2019-02-23T06:47:43.517Z,100.00
2019-02-23T06:50:17.432Z,100.00
2019-02-23T06:52:50.965Z,100.00
2019-02-23T06:55:23.986Z,100.00
2019-02-23T06:57:56.896Z,100.00
2019-02-23T07:00:30.383Z,100.00
2019-02-23T07:03:03.603Z,100.00
2019-02-23T07:05:36.692Z,100.00
2019-02-23T07:08:10.182Z,100.00
2019-02-23T07:10:43.623Z,100.00
2019-02-23T07:13:16.218Z,100.00
2019-02-23T07:15:49.737Z,100.00
2019-02-23T07:18:23.128Z,100.00
2019-02-23T07:20:58.031Z,99.68
2019-02-23T07:23:30.552Z,99.71
2019-02-23T07:26:03.973Z,99.34
2019-02-23T07:28:36.654Z,98.99
2019-02-23T07:31:09.926Z,98.85
2019-02-23T07:33:42.907Z,98.16
2019-02-23T07:36:16.341Z,97.74
2019-02-23T07:38:49.314Z,97.95
2019-02-23T07:41:22.586Z,97.46
2019-02-23T07:43:55.976Z,96.29
2019-02-23T07:46:29.039Z,96.82
2019-02-23T07:49:02.694Z,96.59
2019-02-23T07:51:35.968Z,96.93
2019-02-23T07:54:09.592Z,96.68
2019-02-23T07:56:42.984Z,96.00
2019-02-23T07:59:16.057Z,95.54
2019-02-23T08:01:49.222Z,95.49
2019-02-23T08:04:22.259Z,95.32
2019-02-23T08:06:55.622Z,94.45
2019-02-23T08:09:28.717Z,94.84
2019-02-23T08:12:02.398Z,94.12
2019-02-23T08:14:35.679Z,92.21
2019-02-23T08:17:08.719Z,92.75
2019-02-23T08:19:42.215Z,92.85
2019-02-23T08:22:15.710Z,91.93
2019-02-23T08:24:49.017Z,90.92
2019-02-23T08:27:22.672Z,90.28
2019-02-23T08:29:56.176Z,90.38
2019-02-23T08:32:29.301Z,88.29
2019-02-23T08:35:02.768Z,90.04
2019-02-23T08:37:35.701Z,88.85
2019-02-23T08:40:09.623Z,87.21
2019-02-23T08:42:43.138Z,87.96
2019-02-23T08:45:16.335Z,86.08
2019-02-23T08:47:49.094Z,85.76
2019-02-23T08:50:21.792Z,85.27
2019-02-23T08:52:55.412Z,85.94
2019-02-23T08:55:28.441Z,87.61
2019-02-23T08:58:01.537Z,86.98
2019-02-23T09:00:34.619Z,87.43
2019-02-23T09:03:08.636Z,87.24
2019-02-23T09:05:42.613Z,86.24
2019-02-23T09:08:16.061Z,85.93
2019-02-23T09:10:52.093Z,83.63
2019-02-23T09:13:25.106Z,83.02
2019-02-23T09:15:59.281Z,78.33
2019-02-23T09:18:33.234Z,77.11
2019-02-23T09:21:07.087Z,78.67
2019-02-23T09:23:40.435Z,80.63
2019-02-23T09:26:14.279Z,81.95
2019-02-23T09:28:47.328Z,80.40
2019-02-23T09:31:20.017Z,78.44
2019-02-23T09:33:53.478Z,77.92
2019-02-23T09:36:27.986Z,74.81
2019-02-23T09:39:01.513Z,75.09
2019-02-23T09:41:36.879Z,77.08
2019-02-23T09:44:10.581Z,75.97
2019-02-23T09:46:44.171Z,74.93
2019-02-23T09:49:16.923Z,73.66
2019-02-23T09:51:49.946Z,72.93
2019-02-23T09:54:22.929Z,73.25
2019-02-23T09:56:55.979Z,72.23
2019-02-23T09:59:29.440Z,74.74
2019-02-23T10:02:02.615Z,74.43
2019-02-23T10:04:35.513Z,67.85
2019-02-23T10:07:10.226Z,67.26
2019-02-23T10:09:43.407Z,67.33
2019-02-23T10:12:16.857Z,69.75
2019-02-23T10:14:52.105Z,71.93
2019-02-23T10:17:25.350Z,70.50
2019-02-23T10:19:59.295Z,68.32
2019-02-23T10:22:32.691Z,68.75
2019-02-23T10:25:05.728Z,67.09
2019-02-23T10:27:42.102Z,65.55
2019-02-23T10:30:14.992Z,60.58
2019-02-23T10:32:47.422Z,63.37
2019-02-23T10:35:20.531Z,62.77
2019-02-23T10:37:53.616Z,58.34
2019-02-23T10:40:26.828Z,56.88
2019-02-23T10:42:59.428Z,61.78
2019-02-23T10:45:33.124Z,66.28
2019-02-23T10:48:06.229Z,62.48
2019-02-23T10:50:39.312Z,61.20
2019-02-23T10:53:12.459Z,64.46
2019-02-23T10:55:47.942Z,63.53
2019-02-23T10:58:21.141Z,60.34
2019-02-23T11:00:54.429Z,60.72
2019-02-23T11:03:28.942Z,61.62
2019-02-23T11:06:03.326Z,62.24
2019-02-23T11:08:36.569Z,61.81
2019-02-23T11:11:10.201Z,62.07
2019-02-23T11:13:44.016Z,59.15
2019-02-23T11:16:16.610Z,58.34
2019-02-23T11:18:50.556Z,57.21
2019-02-23T11:21:23.651Z,60.09
2019-02-23T11:23:57.391Z,60.79
2019-02-23T11:26:30.510Z,59.40
2019-02-23T11:29:03.975Z,56.97
2019-02-23T11:31:36.738Z,56.80
2019-02-23T11:34:10.613Z,56.27
2019-02-23T11:36:43.714Z,56.96
2019-02-23T11:39:16.889Z,58.93
2019-02-23T11:41:50.432Z,56.14
2019-02-23T11:44:23.085Z,55.25
2019-02-23T11:47:00.337Z,52.99
2019-02-23T11:49:31.219Z,53.25
2019-02-23T11:52:04.315Z,52.60
2019-02-23T11:54:38.225Z,53.96
2019-02-23T11:57:11.065Z,51.08
2019-02-23T11:59:44.411Z,51.68
2019-02-23T12:02:18.009Z,50.91
2019-02-23T12:04:51.611Z,48.59
2019-02-23T12:07:25.483Z,45.77
2019-02-23T12:09:58.169Z,47.80
2019-02-23T12:12:31.673Z,48.86
2019-02-23T12:15:04.589Z,45.30
2019-02-23T12:17:40.027Z,46.91
2019-02-23T12:20:13.516Z,46.84
2019-02-23T12:22:50.317Z,47.73
2019-02-23T12:25:23.816Z,48.05
2019-02-23T12:27:58.228Z,48.27
2019-02-23T12:30:32.844Z,48.68
2019-02-23T12:33:06.687Z,47.15
2019-02-23T12:35:40.048Z,45.92
2019-02-23T12:38:13.599Z,45.38
2019-02-23T12:40:47.543Z,46.50
2019-02-23T12:43:20.648Z,44.99
2019-02-23T12:45:54.040Z,45.22
2019-02-23T12:48:28.650Z,44.11
2019-02-23T12:51:02.264Z,41.33
2019-02-23T12:53:34.965Z,42.16
2019-02-23T12:56:09.247Z,42.85
2019-02-23T12:58:42.883Z,40.01
2019-02-23T13:01:15.546Z,42.13
2019-02-23T13:03:48.126Z,39.29
2019-02-23T13:06:21.432Z,39.71
2019-02-23T13:09:20.723Z,40.92
2019-02-23T13:12:14.543Z,40.85
2019-02-23T13:15:11.985Z,40.66
2019-02-23T13:18:28.603Z,41.92
2019-02-23T13:21:22.464Z,43.35
2019-02-23T13:24:34.552Z,44.21
2019-02-23T13:27:22.521Z,43.49
2019-02-23T13:30:53.459Z,45.86
2019-02-23T13:34:32.601Z,43.30
2019-02-23T13:37:41.305Z,44.75
2019-02-23T13:40:49.156Z,47.94
2019-02-23T13:44:09.919Z,47.09
2019-02-23T13:47:17.614Z,49.01
2019-02-23T13:50:01.691Z,49.83
2019-02-23T13:52:47.057Z,48.47
2019-02-23T13:56:03.894Z,49.17
2019-02-23T13:58:47.926Z,48.88
2019-02-23T14:02:00.811Z,50.00
2019-02-23T21:53:51.389Z,59.56
2019-02-23T21:56:26.160Z,59.61
2019-02-23T21:59:03.442Z,59.35
2019-02-23T22:01:39.780Z,59.30
2019-02-23T22:04:13.801Z,59.65
2019-02-23T22:06:48.530Z,59.92
2019-02-23T22:09:21.839Z,60.16
2019-02-23T22:11:54.946Z,60.63
2019-02-23T22:14:28.761Z,60.97
2019-02-23T22:17:03.915Z,61.27
2019-02-23T22:19:37.744Z,61.80
2019-02-23T22:22:11.693Z,61.77
2019-02-23T22:24:44.992Z,61.57
2019-02-23T22:27:29.177Z,61.09
2019-02-23T22:29:57.128Z,60.75
2019-02-23T22:32:32.286Z,61.02
2019-02-23T22:35:05.997Z,61.00
2019-02-23T22:37:39.180Z,61.03
2019-02-23T22:40:12.245Z,60.62
2019-02-23T22:42:45.738Z,60.33
2019-02-23T22:45:20.150Z,60.49
2019-02-23T22:47:53.908Z,60.21
2019-02-23T22:50:27.604Z,60.74
2019-02-23T22:53:04.080Z,60.68
2019-02-23T22:55:36.848Z,60.69
2019-02-23T22:58:10.400Z,60.97
2019-02-23T23:00:53.794Z,61.05
2019-02-23T23:03:31.666Z,61.29
2019-02-23T23:06:05.032Z,62.01
2019-02-23T23:08:38.702Z,61.99
2019-02-23T23:11:13.570Z,62.42
2019-02-23T23:13:49.285Z,62.16
2019-02-23T23:16:23.861Z,62.46
2019-02-23T23:18:57.437Z,62.66
2019-02-23T23:21:31.662Z,62.82
2019-02-23T23:24:05.214Z,63.28
2019-02-23T23:26:43.041Z,63.30
2019-02-23T23:29:15.819Z,63.59
2019-02-23T23:31:49.228Z,63.51
2019-02-23T23:34:25.896Z,64.00
2019-02-23T23:37:00.270Z,64.40
2019-02-23T23:39:35.838Z,64.68
2019-02-23T23:42:08.569Z,65.01
2019-02-23T23:44:42.461Z,65.95
2019-02-23T23:47:15.920Z,65.92
2019-02-23T23:49:49.657Z,66.21
2019-02-23T23:52:22.763Z,67.27
2019-02-23T23:54:56.155Z,67.35
2019-02-23T23:57:32.890Z,67.23
